createdAt,value
2022-08-19T00:01:56.160Z,3.65
2022-08-19T00:04:26.562Z,3.50
2022-08-19T00:06:56.370Z,3.92
2022-08-19T00:09:26.432Z,3.97
2022-08-19T00:11:57.454Z,4.00
2022-08-19T00:14:27.509Z,3.33
2022-08-19T00:16:56.112Z,3.28
2022-08-19T00:19:25.624Z,3.45
2022-08-19T00:21:56.199Z,2.95
2022-08-19T00:24:25.251Z,3.60
2022-08-19T00:26:54.087Z,3.65
2022-08-19T00:29:23.676Z,3.50
2022-08-19T00:34:41.643Z,3.70
2022-08-19T00:37:11.377Z,3.70
2022-08-19T00:39:39.819Z,3.13
2022-08-19T00:42:08.266Z,3.00
2022-08-19T00:44:36.711Z,2.95
2022-08-19T00:47:06.188Z,3.20
2022-08-19T00:49:46.773Z,3.10
2022-08-19T00:52:19.775Z,3.03
2022-08-19T00:54:52.600Z,2.63
2022-08-19T00:57:27.478Z,2.88
2022-08-19T01:02:33.047Z,2.92
2022-08-19T01:05:04.200Z,3.00
2022-08-19T01:07:35.880Z,2.35
2022-08-19T01:12:36.276Z,2.63
2022-08-19T01:15:05.300Z,2.67
2022-08-19T01:17:34.738Z,2.60
2022-08-19T01:20:03.014Z,2.53
2022-08-19T01:22:38.724Z,2.47
2022-08-19T01:25:14.759Z,2.42
2022-08-19T01:27:46.071Z,2.83
2022-08-19T01:30:18.431Z,3.20
2022-08-19T01:32:47.996Z,2.97
2022-08-19T01:35:19.134Z,3.95
2022-08-19T01:37:53.291Z,3.88
2022-08-19T01:40:23.999Z,4.38
2022-08-19T01:42:53.899Z,4.00
2022-08-19T01:45:25.143Z,3.60
2022-08-19T01:48:02.331Z,3.43
2022-08-19T01:50:32.357Z,3.28
2022-08-19T01:53:06.624Z,3.40
2022-08-19T01:55:40.828Z,3.42
2022-08-19T01:58:17.238Z,3.58
2022-08-19T02:00:46.145Z,4.18
2022-08-19T02:03:14.877Z,4.90
2022-08-19T02:05:43.863Z,3.50
2022-08-19T02:08:14.163Z,3.40
2022-08-19T02:10:44.889Z,3.75
2022-08-19T02:13:16.264Z,3.83
2022-08-19T02:15:51.648Z,3.47
2022-08-19T02:18:19.774Z,4.57
2022-08-19T02:20:49.027Z,3.47
2022-08-19T02:23:19.261Z,5.00
2022-08-19T02:25:50.059Z,4.55
2022-08-19T02:28:19.107Z,4.70
2022-08-19T02:30:49.516Z,4.22
2022-08-19T02:33:18.095Z,4.95
2022-08-19T02:35:46.768Z,4.72
2022-08-19T02:38:27.789Z,4.40
2022-08-19T02:40:59.610Z,4.50
2022-08-19T02:43:29.260Z,4.97
2022-08-19T02:46:02.183Z,5.75
2022-08-19T02:48:30.348Z,5.00
2022-08-19T02:50:58.638Z,4.60
2022-08-19T02:53:29.764Z,4.75
2022-08-19T02:56:20.562Z,5.35
2022-08-19T02:58:50.156Z,6.00
2022-08-19T03:01:24.979Z,5.15
2022-08-19T03:03:53.304Z,4.80
2022-08-19T03:06:22.192Z,5.20
2022-08-19T03:08:51.346Z,4.00
2022-08-19T03:11:23.425Z,4.25
2022-08-19T03:13:52.601Z,5.50
2022-08-19T03:16:21.055Z,4.93
2022-08-19T03:18:49.890Z,4.28
2022-08-19T03:21:18.531Z,4.45
2022-08-19T03:23:46.951Z,4.78
2022-08-19T03:26:17.087Z,4.03
2022-08-19T03:28:57.705Z,6.80
2022-08-19T03:31:44.253Z,7.68
2022-08-19T03:34:19.974Z,6.82
2022-08-19T03:36:48.634Z,6.95
2022-08-19T03:39:17.532Z,3.50
2022-08-19T03:41:48.432Z,3.08
2022-08-19T03:44:21.666Z,3.08
2022-08-19T03:46:52.616Z,3.10
2022-08-19T03:49:21.632Z,3.05
2022-08-19T03:51:57.057Z,3.50
2022-08-19T03:54:27.268Z,2.95
2022-08-19T03:56:58.353Z,3.08
2022-08-19T03:59:31.531Z,2.75
2022-08-19T04:02:02.754Z,2.70
2022-08-19T04:04:31.905Z,4.90
2022-08-19T04:07:00.260Z,7.63
2022-08-19T04:09:48.150Z,4.20
2022-08-19T04:12:16.730Z,3.47
2022-08-19T04:14:46.104Z,6.20
2022-08-19T04:17:15.390Z,3.35
2022-08-19T04:19:43.971Z,2.47
2022-08-19T04:22:13.559Z,2.55
2022-08-19T04:24:41.752Z,2.15
2022-08-19T04:27:10.013Z,2.40
2022-08-19T04:29:40.367Z,28.40
2022-08-19T04:32:10.370Z,5.43
2022-08-19T04:35:15.805Z,4.07
2022-08-19T04:37:35.550Z,7.28
2022-08-19T04:40:24.190Z,4.47
2022-08-19T04:42:52.958Z,2.90
2022-08-19T04:45:22.856Z,2.53
2022-08-19T04:48:26.763Z,2.47
2022-08-19T04:50:49.204Z,2.35
2022-08-19T04:53:17.747Z,2.60
2022-08-19T04:55:45.881Z,2.60
2022-08-19T04:58:14.244Z,2.78
2022-08-19T05:00:42.735Z,2.30
2022-08-19T05:03:12.305Z,2.88
2022-08-19T05:05:44.980Z,3.10
2022-08-19T05:08:15.258Z,4.03
2022-08-19T05:10:43.877Z,4.75
2022-08-19T05:13:11.869Z,5.05
2022-08-19T05:15:40.788Z,4.72
2022-08-19T05:18:29.731Z,5.45
2022-08-19T05:21:20.533Z,6.60
2022-08-19T05:23:49.406Z,6.90
2022-08-19T05:26:17.418Z,6.25
2022-08-19T05:28:45.662Z,6.93
2022-08-19T05:31:14.248Z,7.55
2022-08-19T05:33:43.936Z,9.10
2022-08-19T05:36:11.990Z,8.45
2022-08-19T05:38:40.306Z,8.13
2022-08-19T05:41:09.986Z,7.78
2022-08-19T05:43:39.086Z,8.38
2022-08-19T05:46:08.270Z,9.38
2022-08-19T05:48:37.371Z,9.70
2022-08-19T05:51:09.311Z,9.50
2022-08-19T05:53:38.046Z,9.15
2022-08-19T05:56:06.880Z,7.90
2022-08-19T05:58:35.283Z,7.53
2022-08-19T06:01:06.278Z,12.70
2022-08-19T06:03:35.575Z,13.32
2022-08-19T06:06:04.758Z,12.63
2022-08-19T06:08:36.315Z,11.10
2022-08-19T06:11:21.284Z,8.93
2022-08-19T06:13:52.045Z,8.60
2022-08-19T06:16:28.894Z,8.15
2022-08-19T06:18:58.526Z,7.43
2022-08-19T06:21:30.283Z,6.95
2022-08-19T06:24:00.383Z,5.15
2022-08-19T06:26:29.444Z,5.82
2022-08-19T06:28:57.532Z,4.60
2022-08-19T06:31:29.976Z,4.70
2022-08-19T06:33:58.232Z,4.10
2022-08-19T06:36:32.786Z,4.05
2022-08-19T06:39:03.478Z,4.32
2022-08-19T06:41:32.983Z,3.72
2022-08-19T06:44:01.029Z,4.10
2022-08-19T06:46:29.712Z,4.22
2022-08-19T06:49:02.197Z,3.35
2022-08-19T06:54:08.161Z,3.25
2022-08-19T06:56:47.869Z,3.28
2022-08-19T06:59:19.762Z,2.55
2022-08-19T07:01:51.666Z,3.28
2022-08-19T07:04:23.903Z,6.88
2022-08-19T07:06:59.350Z,6.50
2022-08-19T07:09:42.253Z,6.20
2022-08-19T07:12:14.780Z,5.40
2022-08-19T07:14:47.202Z,5.30
2022-08-19T07:17:15.788Z,3.13
2022-08-19T07:19:44.395Z,2.50
2022-08-19T07:22:12.999Z,2.05
2022-08-19T07:24:51.253Z,2.03
2022-08-19T07:27:24.237Z,1.83
2022-08-19T07:29:57.334Z,2.20
2022-08-19T07:32:27.436Z,1.60
2022-08-19T07:34:56.385Z,1.80
2022-08-19T07:37:32.389Z,1.60
2022-08-19T07:40:03.049Z,1.88
2022-08-19T07:42:31.673Z,1.63
2022-08-19T07:45:00.427Z,1.48
2022-08-19T07:47:48.906Z,1.70
2022-08-19T07:50:20.507Z,1.70
2022-08-19T07:52:50.387Z,1.50
2022-08-19T07:55:42.651Z,1.05
2022-08-19T07:58:14.122Z,1.48
2022-08-19T08:00:43.036Z,1.23
2022-08-19T08:03:11.842Z,1.23
2022-08-19T08:05:58.946Z,1.20
2022-08-19T08:08:48.250Z,4.05
2022-08-19T08:11:20.057Z,2.45
2022-08-19T08:14:01.097Z,1.38
2022-08-19T08:16:35.673Z,1.50
2022-08-19T08:19:20.393Z,1.15
2022-08-19T08:21:55.706Z,1.17
2022-08-19T08:24:28.691Z,1.20
2022-08-19T08:27:02.155Z,1.25
2022-08-19T08:29:34.472Z,1.05
2022-08-19T08:32:14.046Z,1.27
2022-08-19T08:34:43.350Z,1.25
2022-08-19T08:37:11.611Z,1.15
2022-08-19T08:39:40.309Z,1.10
2022-08-19T08:42:18.091Z,1.42
2022-08-19T08:47:28.650Z,1.20
2022-08-19T08:50:01.492Z,1.00
2022-08-19T08:52:35.114Z,0.93
2022-08-19T08:55:10.537Z,0.88
2022-08-19T08:57:46.530Z,1.00
2022-08-19T09:00:25.073Z,1.10
2022-08-19T09:02:53.845Z,1.10
2022-08-19T09:05:26.083Z,1.00
2022-08-19T09:08:02.701Z,0.75
2022-08-19T09:10:44.343Z,1.33
2022-08-19T09:13:24.447Z,4.15
2022-08-19T09:15:58.262Z,4.38
2022-08-19T09:18:29.835Z,3.47
2022-08-19T09:20:58.179Z,1.55
2022-08-19T09:23:27.143Z,0.90
2022-08-19T09:25:55.941Z,1.13
2022-08-19T09:28:27.211Z,0.90
2022-08-19T09:33:32.026Z,1.20
2022-08-19T09:36:10.043Z,1.30
2022-08-19T09:38:43.633Z,1.20
2022-08-19T09:41:18.929Z,1.50
2022-08-19T09:43:53.001Z,1.30
2022-08-19T09:49:10.001Z,1.27
2022-08-19T09:51:38.208Z,1.25
2022-08-19T09:54:07.932Z,1.33
2022-08-19T09:56:39.849Z,5.45
2022-08-19T09:59:13.049Z,2.80
2022-08-19T10:01:41.699Z,1.67
2022-08-19T10:04:20.267Z,1.70
2022-08-19T10:06:53.413Z,2.15
2022-08-19T10:09:34.053Z,2.35
2022-08-19T10:12:23.123Z,3.85
2022-08-19T10:14:54.413Z,3.72
2022-08-19T10:17:26.418Z,2.63
2022-08-19T10:19:59.370Z,2.88
2022-08-19T10:22:27.771Z,2.80
2022-08-19T10:24:58.301Z,2.40
2022-08-19T10:27:26.882Z,2.83
2022-08-19T10:29:58.952Z,2.88
2022-08-19T10:32:33.937Z,2.97
2022-08-19T10:35:06.134Z,2.83
2022-08-19T10:37:34.591Z,2.60
2022-08-19T10:40:05.054Z,3.28
2022-08-19T10:42:33.649Z,3.20
2022-08-19T10:45:04.859Z,3.03
2022-08-19T10:47:34.069Z,3.10
2022-08-19T10:50:19.647Z,2.78
2022-08-19T10:52:50.814Z,2.90
2022-08-19T10:55:38.992Z,3.67
2022-08-19T10:58:13.434Z,3.50
2022-08-19T11:00:44.092Z,3.55
2022-08-19T11:05:42.146Z,3.72
2022-08-19T11:08:22.892Z,3.75
2022-08-19T11:13:43.844Z,3.55
2022-08-19T11:16:18.942Z,3.78
2022-08-19T11:18:50.707Z,4.10
2022-08-19T11:21:24.197Z,4.35
2022-08-19T11:23:55.716Z,3.92
2022-08-19T11:26:25.524Z,3.78
2022-08-19T11:28:56.044Z,3.50
2022-08-19T11:31:31.584Z,3.55
2022-08-19T11:34:02.763Z,3.70
2022-08-19T11:39:00.346Z,2.53
2022-08-19T11:43:59.896Z,3.50
2022-08-19T11:46:31.859Z,2.63
2022-08-19T11:49:01.608Z,2.50
2022-08-19T11:51:30.129Z,2.15
2022-08-19T11:54:00.478Z,2.08
2022-08-19T11:56:29.389Z,1.50
2022-08-19T11:58:58.750Z,2.40
2022-08-19T12:01:29.293Z,1.60
2022-08-19T12:03:58.715Z,4.33
2022-08-19T12:06:30.437Z,1.60
2022-08-19T12:09:18.611Z,1.52
2022-08-19T12:11:47.051Z,1.40
2022-08-19T12:14:16.864Z,1.10
2022-08-19T12:16:51.000Z,1.35
2022-08-19T12:19:21.740Z,1.20
2022-08-19T12:21:51.343Z,1.17
2022-08-19T12:24:23.995Z,1.25
2022-08-19T12:26:53.980Z,1.10
2022-08-19T12:29:23.814Z,1.13
2022-08-19T12:31:53.877Z,0.90
2022-08-19T12:34:22.322Z,1.00
2022-08-19T12:36:51.204Z,1.38
2022-08-19T12:39:19.674Z,1.30
2022-08-19T12:41:54.317Z,1.60
2022-08-19T12:44:28.853Z,0.80
2022-08-19T12:46:59.955Z,0.50
2022-08-19T12:49:52.815Z,0.60
2022-08-19T12:52:23.114Z,0.50
2022-08-19T12:54:54.476Z,0.60
2022-08-19T12:57:24.430Z,0.32
2022-08-19T13:00:01.771Z,0.50
2022-08-19T13:02:38.602Z,0.45
2022-08-19T13:05:10.969Z,0.30
2022-08-19T13:07:39.834Z,0.60
2022-08-19T13:10:09.888Z,1.30
2022-08-19T13:12:38.541Z,0.60
2022-08-19T13:15:10.963Z,0.60
2022-08-19T13:17:42.370Z,0.50
2022-08-19T13:20:12.413Z,0.50
2022-08-19T13:22:41.027Z,0.40
2022-08-19T13:25:10.743Z,0.40
2022-08-19T13:27:39.908Z,0.50
2022-08-19T13:30:29.314Z,0.45
2022-08-19T13:33:16.135Z,0.45
2022-08-19T13:35:47.940Z,0.88
2022-08-19T13:38:17.377Z,1.00
2022-08-19T13:40:46.102Z,1.77
2022-08-19T13:43:22.810Z,0.82
2022-08-19T13:45:54.695Z,0.60
2022-08-19T13:48:26.484Z,0.70
2022-08-19T13:50:55.041Z,0.70
2022-08-19T13:53:23.460Z,0.70
2022-08-19T13:55:52.224Z,0.75
2022-08-19T13:58:20.320Z,0.30
2022-08-19T14:00:49.383Z,0.50
2022-08-19T14:03:17.694Z,0.68
2022-08-19T14:05:47.983Z,0.80
2022-08-19T14:08:16.196Z,0.52
2022-08-19T14:10:45.560Z,0.50
2022-08-19T14:13:18.136Z,4.05
2022-08-19T14:15:48.677Z,0.83
2022-08-19T14:18:17.758Z,0.60
2022-08-19T14:20:47.556Z,0.65
2022-08-19T14:23:16.296Z,0.80
2022-08-19T14:25:44.614Z,0.93
2022-08-19T14:28:13.093Z,2.65
2022-08-19T14:30:41.714Z,3.42
2022-08-19T14:33:10.417Z,3.03
2022-08-19T14:35:39.374Z,2.20
2022-08-19T14:38:17.540Z,2.63
2022-08-19T14:40:46.765Z,2.10
2022-08-19T14:43:15.115Z,1.60
2022-08-19T14:45:47.103Z,2.13
2022-08-19T14:48:19.345Z,4.13
2022-08-19T14:50:49.638Z,1.17
2022-08-19T14:53:19.033Z,0.88
2022-08-19T14:55:48.315Z,0.90
2022-08-19T14:58:29.217Z,0.60
2022-08-19T15:01:00.996Z,0.80
2022-08-19T15:03:29.679Z,0.80
2022-08-19T15:05:58.840Z,0.70
2022-08-19T15:08:31.065Z,1.25
2022-08-19T15:11:00.328Z,0.88
2022-08-19T15:13:29.951Z,0.70
2022-08-19T15:15:59.605Z,0.70
2022-08-19T15:18:27.730Z,0.80
2022-08-19T15:20:56.450Z,0.60
2022-08-19T15:23:24.839Z,0.85
2022-08-19T15:25:56.639Z,0.77
2022-08-19T15:28:26.221Z,0.68
2022-08-19T15:30:54.903Z,0.63
2022-08-19T15:33:23.309Z,0.80
2022-08-19T15:35:52.707Z,0.50
2022-08-19T15:38:22.214Z,0.90
2022-08-19T15:40:52.036Z,0.82
2022-08-19T15:43:23.327Z,1.10
2022-08-19T15:45:51.594Z,0.90
2022-08-19T15:48:19.798Z,0.77
2022-08-19T15:50:48.313Z,0.82
2022-08-19T15:53:17.156Z,1.00
2022-08-19T15:55:48.664Z,1.00
2022-08-19T15:58:34.801Z,0.90
2022-08-19T16:01:24.537Z,1.00
2022-08-19T16:04:16.109Z,0.70
2022-08-19T16:06:47.213Z,0.70
2022-08-19T16:09:17.192Z,2.65
2022-08-19T16:11:56.626Z,3.15
2022-08-19T16:14:26.242Z,4.35
2022-08-19T16:16:57.046Z,3.03
2022-08-19T16:19:27.487Z,1.88
2022-08-19T16:21:58.259Z,1.35
2022-08-19T16:24:29.173Z,1.00
2022-08-19T16:29:48.584Z,0.80
2022-08-19T16:32:20.769Z,0.90
2022-08-19T16:34:50.568Z,0.90
2022-08-19T16:37:19.430Z,0.93
2022-08-19T16:39:49.474Z,0.82
2022-08-19T16:42:17.789Z,0.88
2022-08-19T16:44:47.292Z,1.80
2022-08-19T16:47:18.083Z,0.95
2022-08-19T16:49:52.934Z,0.98
2022-08-19T16:52:26.918Z,0.90
2022-08-19T16:54:55.102Z,1.08
2022-08-19T16:57:24.467Z,1.60
2022-08-19T16:59:53.387Z,4.43
2022-08-19T17:02:25.636Z,3.65
2022-08-19T17:04:59.291Z,2.35
2022-08-19T17:07:28.223Z,1.80
2022-08-19T17:09:56.979Z,1.10
2022-08-19T17:12:30.579Z,1.00
2022-08-19T17:15:01.686Z,1.00
2022-08-19T17:17:31.730Z,1.30
2022-08-19T17:20:00.366Z,1.20
2022-08-19T17:22:28.801Z,1.10
2022-08-19T17:24:58.219Z,0.80
2022-08-19T17:27:32.200Z,0.75
2022-08-19T17:32:35.258Z,0.77
2022-08-19T17:37:34.165Z,0.88
2022-08-19T17:40:03.333Z,7.32
2022-08-19T17:42:32.067Z,6.60
2022-08-19T17:45:00.223Z,3.83
2022-08-19T17:47:31.370Z,7.15
2022-08-19T17:50:00.019Z,5.35
2022-08-19T17:52:28.368Z,5.35
2022-08-19T17:54:56.816Z,5.90
2022-08-19T17:57:24.927Z,3.53
2022-08-19T17:59:53.869Z,1.90
2022-08-19T18:02:22.542Z,1.65
2022-08-19T18:04:52.132Z,1.05
2022-08-19T18:07:22.041Z,1.10
2022-08-19T18:09:52.734Z,1.58
2022-08-19T18:12:27.623Z,1.48
2022-08-19T18:14:55.975Z,1.38
2022-08-19T18:17:25.984Z,1.58
2022-08-19T18:19:56.122Z,1.30
2022-08-19T18:22:27.396Z,1.25
2022-08-19T18:24:57.196Z,1.15
2022-08-19T18:27:26.195Z,1.08
2022-08-19T18:29:59.288Z,0.95
2022-08-19T18:32:30.160Z,1.15
2022-08-19T18:35:02.193Z,1.10
2022-08-19T18:37:33.823Z,0.98
2022-08-19T18:40:19.472Z,5.80
2022-08-19T18:43:05.291Z,3.78
2022-08-19T18:45:51.554Z,3.05
2022-08-19T18:48:37.465Z,5.00
2022-08-19T18:51:07.695Z,15.48
2022-08-19T18:53:38.541Z,15.82
2022-08-19T18:56:08.185Z,3.10
2022-08-19T18:58:38.580Z,2.00
2022-08-19T19:01:11.588Z,2.08
2022-08-19T19:03:42.611Z,1.95
2022-08-19T19:06:12.801Z,3.85
2022-08-19T19:08:41.335Z,12.43
2022-08-19T19:11:09.723Z,9.82
2022-08-19T19:13:41.414Z,8.90
2022-08-19T19:16:12.448Z,9.77
2022-08-19T19:18:40.800Z,4.25
2022-08-19T19:21:10.218Z,2.90
2022-08-19T19:23:42.454Z,2.20
2022-08-19T19:26:11.824Z,3.42
2022-08-19T19:28:45.597Z,6.70
2022-08-19T19:31:16.118Z,5.70
2022-08-19T19:33:45.824Z,4.43
2022-08-19T19:36:13.970Z,3.38
2022-08-19T19:38:48.551Z,12.10
2022-08-19T19:41:19.115Z,9.25
2022-08-19T19:43:56.648Z,5.28
2022-08-19T19:46:33.912Z,2.17
2022-08-19T19:49:03.393Z,1.90
2022-08-19T19:51:33.224Z,1.60
2022-08-19T19:56:35.723Z,2.08
2022-08-19T19:59:04.287Z,1.65
2022-08-19T20:01:32.934Z,1.70
2022-08-19T20:04:02.096Z,1.40
2022-08-19T20:06:31.190Z,1.77
2022-08-19T20:09:19.463Z,1.60
2022-08-19T20:11:53.636Z,1.38
2022-08-19T20:14:24.430Z,1.40
2022-08-19T20:16:54.325Z,1.70
2022-08-19T20:19:26.023Z,1.15
2022-08-19T20:21:57.468Z,1.25
2022-08-19T20:24:32.601Z,1.30
2022-08-19T20:27:04.171Z,1.30
2022-08-19T20:29:39.270Z,2.10
2022-08-19T20:32:10.795Z,5.13
2022-08-19T20:34:39.231Z,3.83
2022-08-19T20:37:09.499Z,2.58
2022-08-19T20:39:38.279Z,2.08
2022-08-19T20:42:08.088Z,1.80
2022-08-19T20:44:37.909Z,1.58
2022-08-19T20:47:06.343Z,1.60
2022-08-19T20:49:35.315Z,1.40
2022-08-19T20:52:04.911Z,1.85
2022-08-19T20:54:33.443Z,1.90
2022-08-19T20:57:03.602Z,1.83
2022-08-19T20:59:33.742Z,2.58
2022-08-19T21:02:01.866Z,1.80
2022-08-19T21:04:29.952Z,2.03
2022-08-19T21:06:59.648Z,1.50
2022-08-19T21:09:27.733Z,1.20
2022-08-19T21:11:55.982Z,1.50
2022-08-19T21:14:24.075Z,1.60
2022-08-19T21:16:54.297Z,1.65
2022-08-19T21:19:24.149Z,1.73
2022-08-19T21:21:53.297Z,2.05
2022-08-19T21:24:21.854Z,1.58
2022-08-19T21:26:58.460Z,1.60
2022-08-19T21:29:26.542Z,1.67
2022-08-19T21:31:56.063Z,1.50
2022-08-19T21:34:24.508Z,1.60
2022-08-19T21:36:52.594Z,1.60
2022-08-19T21:39:20.939Z,1.75
2022-08-19T21:41:48.982Z,1.80
2022-08-19T21:44:17.133Z,1.85
2022-08-19T21:46:45.389Z,1.70
2022-08-19T21:49:21.027Z,1.60
2022-08-19T21:51:49.902Z,1.75
2022-08-19T21:54:17.968Z,1.85
2022-08-19T21:56:47.154Z,2.10
2022-08-19T21:59:16.746Z,1.88
2022-08-19T22:01:49.663Z,1.90
2022-08-19T22:04:24.851Z,2.05
2022-08-19T22:06:54.863Z,1.88
2022-08-19T22:09:22.911Z,1.73
2022-08-19T22:11:51.353Z,1.50
2022-08-19T22:14:19.551Z,1.63
2022-08-19T22:16:47.647Z,1.75
2022-08-19T22:19:15.830Z,1.98
2022-08-19T22:21:45.353Z,1.65
2022-08-19T22:24:13.517Z,1.95
2022-08-19T22:26:41.751Z,1.80
2022-08-19T22:29:10.373Z,1.63
2022-08-19T22:31:38.753Z,1.70
2022-08-19T22:34:07.948Z,1.73
2022-08-19T22:36:36.298Z,1.88
2022-08-19T22:39:06.205Z,1.83
2022-08-19T22:41:34.908Z,1.80
2022-08-19T22:44:03.814Z,1.98
2022-08-19T22:46:34.374Z,1.85
2022-08-19T22:49:02.591Z,1.80
2022-08-19T22:51:48.232Z,1.75
2022-08-19T22:54:18.051Z,1.88
2022-08-19T22:56:46.801Z,1.77
2022-08-19T22:59:15.035Z,1.70
2022-08-19T23:01:43.202Z,1.75
2022-08-19T23:04:11.531Z,1.75
2022-08-19T23:06:42.093Z,1.80
2022-08-19T23:09:16.712Z,1.63
2022-08-19T23:11:47.262Z,1.70
2022-08-19T23:14:17.597Z,1.50
2022-08-19T23:16:50.705Z,1.67
2022-08-19T23:19:21.158Z,1.63
2022-08-19T23:21:49.540Z,1.50
2022-08-19T23:24:17.734Z,1.80
2022-08-19T23:27:01.158Z,1.60
2022-08-19T23:29:47.341Z,1.55
2022-08-19T23:32:17.380Z,1.40
2022-08-19T23:34:45.636Z,1.40
2022-08-19T23:37:13.816Z,1.40
2022-08-19T23:39:42.098Z,1.40
2022-08-19T23:42:13.574Z,1.65
2022-08-19T23:44:52.260Z,1.15
2022-08-19T23:47:21.675Z,1.52
2022-08-19T23:49:50.592Z,1.48
2022-08-19T23:52:18.864Z,2.03
2022-08-19T23:54:47.327Z,1.65
2022-08-19T23:57:16.913Z,1.60
2022-08-19T23:59:46.294Z,1.85
